Mickleton, United Kingdom
Current Conditions -  °F | °C
As of 4:20 PM on Wednesday 22 Oct 2014 (Local Time) from EGBJ Reporting Station
Few Clouds Few Clouds  
Wind Chill: 55°   Ceiling: Unl
Heat Index: 55°   Visibility: 6mi
Dew Point: 48°   Wind: 8mph
Humidity: 77%   Direction: 230°SW
Pressure: 30.24"   Gusts: NA
Location:  52.08°N, 1.77°W
Report Text: EGBJ 221520Z 23007KT 200V260 9999 FEW028 13/09 Q1024
Loading
Personal Weather Stations






























Interactive Weather Map
Tropical Storm Tracking
New forecast layout! Learn more

10-Day Weather Forecast

Advertisements
Track Severe Weather on mobile